ウィーン国際空港の過去48時間の天気

ウィーン国際空港 (Wien / Schwechat-Flughafen)

現在時刻: 1/23 04:28 CET (1/23 03:28 UTC) 以下の時間は現地時間です。

過去48時間のMETAR気象情報
時間 風向 風速(m/s) 視程 気温(℃) 湿度(%) 気圧(hPa) 天気現象
23 04:20 西 4 10km以上 2 81 1035
23 03:50 北西 3 10km以上 2 81 1035
23 03:20 北西 5 10km以上 2 75 1035
23 02:50 北西 3 10km以上 1 80 1035
23 02:20 西北西 5 10km以上 2 75 1035
23 01:50 西北西 6 10km以上 2 75 1035
23 01:20 西北西 6 10km以上 2 75 1035
23 00:50 西北西 7 10km以上 2 75 1034
23 00:20 西北西 6 10km以上 3 75 1034
22 23:50 西北西 7 10km以上 3 75 1034
22 23:20 西北西 8 10km以上 2 81 1034
22 22:50 西北西 6 10km以上 2 75 1034
22 22:20 西北西 6 10km以上 2 75 1034
22 21:50 西北西 6 10km以上 2 75 1033
22 21:20 西北西 5 10km以上 2 75 1033
22 20:50 北西 5 10km以上 2 75 1033
22 20:20 北西 8 10km以上 2 75 1033
22 19:50 北西 6 10km以上 2 69 1032
22 19:20 北北西 2 10km以上 1 80 1032
22 18:50 北北西 2 10km以上 1 80 1031
22 18:20 3 10km以上 1 80 1031
22 17:50 2 10km以上 1 80 1030
22 17:20 3 10km以上 1 80 1030
22 16:50 北北東 4 10km以上 1 80 1030
22 16:20 北北東 2 10km以上 2 75 1029
22 15:50 北西 4 10km以上 3 65 1030
22 15:20 西北西 5 10km以上 4 60 1029
22 14:50 北北西 5 10km以上 3 70 1030
22 14:20 北北西 6 10km以上 3 65 1030
22 13:50 7 10km以上 2 75 1030
22 13:20 6 10km以上 2 75 1031
22 12:50 北北東 4 10km以上 2 81 1031
22 12:20 北北西 3 10km以上 2 75 1031
22 11:50 北西 5 10km以上 1 80 1031
22 11:20 北西 4 9000m 0 86 1032
22 10:50 西北西 4 10km以上 0 80 1032
22 10:20 北西 4 10km以上 -1 86 1033
22 09:50 北西 5 9000m -1 86 1033
22 09:20 西北西 3 9000m -1 93 1034
22 08:50 北北西 2 4900m -1 93 1034 もや
22 08:20 3 4200m -2 100 1034 もや
22 07:50 3 4900m -2 93 1034 もや
22 07:20 北北西 3 4600m -2 100 1034 もや
22 06:50 3 5000m -1 93 1034 もや
22 06:20 北西 2 6000m -1 93 1033
22 05:50 西北西 2 7000m -1 93 1034
22 05:20 不定 1 5000m -1 93 1034 もや
22 04:50 不定 1 6000m -1 93 1034
22 04:20 不定 1 6000m -1 93 1035
22 03:50 不定 1 6000m -1 93 1035
22 03:20 南東 2 7000m -1 93 1035
22 02:50 不定 1 7000m -1 93 1036
22 02:20 南南東 2 8000m -1 93 1036
22 01:50 不定 1 8000m -1 93 1036
22 01:20 不定 1 10km以上 -1 93 1037 もや
22 00:50 不定 1 5000m -1 93 1037 もや
22 00:20 不定 1 3800m -1 100 1038 もや
21 23:50 不定 1 3400m -1 100 1038 もや
21 23:20 不定 1 3200m -1 100 1038 もや
21 22:50 1 4100m -1 100 1039 もや
21 22:20 北東 1 3200m -1 100 1039 もや
21 21:50 東北東 2 3300m -1 100 1039 もや
21 21:20 北北東 2 3300m -1 100 1039 もや
21 20:50 不定 1 2900m -1 100 1039 もや
21 20:20 東南東 1 3200m -1 93 1039 もや
21 19:50 南南東 1 3200m -1 93 1040 もや
21 19:20 2 4100m -1 93 1040 もや
21 18:50 不定 1 4400m -1 93 1040 もや
21 18:20 不定 1 5000m -1 93 1040 もや
21 17:50 東南東 1 5000m -1 93 1041 もや
21 17:20 南東 1 5000m -1 93 1040 もや
21 16:50 不定 1 5000m -2 100 1041 もや
21 16:20 不定 1 4100m -2 100 1041 もや
21 15:50 不定 1 6000m -2 100 1041 もや
21 15:20 南南東 2 5000m -2 100 1041 もや
21 14:50 2 5000m -2 93 1041 もや
21 14:20 不定 2 4700m -2 93 1042 もや
21 13:50 2 5000m -2 93 1042 もや
21 13:20 南東 2 4000m -2 100 1042 もや
21 12:50 東南東 2 900m -2 93 1042 氷霧
21 12:20 南南西 2 600m -3 100 1043 氷霧
21 11:50 2 550m -3 100 1043 氷霧
21 11:20 東南東 2 550m -3 100 1043 氷霧
21 10:50 2 550m -3 100 1043 氷霧
21 10:20 南東 2 600m -3 100 1043 氷霧
21 09:50 東南東 2 450m -3 93 1043 氷霧
21 09:20 不定 1 400m -4 100 1043 氷霧
21 08:50 不定 1 250m -4 100 1044 氷霧
21 08:20 北東 1 300m -5 93 1043 氷霧
21 07:50 不定 1 1000m -5 93 1043 散在した霧
21 07:20 2 800m -6 100 1043 散在した霧
21 06:50 南南東 2 450m -5 93 1043 散在した霧
21 06:20 南東 2 1000m -5 93 1043 散在した霧
21 05:50 1 3000m -5 100 1043 散在した霧
21 05:20 南南東 2 1500m -5 100 1044 散在した霧
21 04:50 南南東 2 450m -4 100 1044 氷霧
LOWW 230320Z 28007KT 9999 OVC033 02/M01 Q1035 R88/19//95 NOSIG
LOWW 230250Z 32005KT 9999 OVC032 02/M01 Q1035 R88/19//95 NOSIG
LOWW 230220Z 31009KT 9999 OVC032 02/M02 Q1035 R88/19//95 NOSIG
LOWW 230150Z 31005KT 9999 FEW028 OVC032 01/M02 Q1035 R88/19//95 NOSIG
LOWW 230120Z 30009KT 9999 FEW030 BKN032 02/M02 Q1035 R88/19//95 NOSIG
LOWW 230050Z 30011KT 9999 FEW030 BKN032 02/M02 Q1035 R88/19//95 NOSIG
LOWW 230020Z 30011KT 9999 FEW030 BKN032 02/M02 Q1035 R88/19//95 NOSIG
LOWW 222350Z 30013KT 9999 FEW030 BKN032 02/M02 Q1034 R88/19//95 NOSIG
LOWW 222320Z 30012KT 9999 FEW030 BKN032 03/M01 Q1034 R88/19//95 NOSIG
LOWW 222250Z 30013KT 9999 FEW032 BKN034 03/M01 Q1034 R88/19//95 NOSIG
LOWW 222220Z 30015KT 9999 FEW032 BKN036 02/M01 Q1034 R88/19//95 NOSIG
LOWW 222150Z 29011KT 9999 FEW034 BKN036 02/M02 Q1034 R88/19//95 NOSIG
LOWW 222120Z 29012KT 9999 FEW038 02/M02 Q1034 R88/19//95 NOSIG
LOWW 222050Z 29012KT 9999 FEW026 02/M02 Q1033 R88/19//95 NOSIG
LOWW 222020Z 30010KT 9999 BKN032 02/M02 Q1033 R88/19//95 NOSIG
LOWW 221950Z 32010KT 9999 OVC022 02/M02 Q1033 R88/19//95 NOSIG
LOWW 221920Z 32015KT 9999 OVC022 02/M02 Q1033 R88/19//95 NOSIG
LOWW 221850Z 32012KT 9999 SCT024 BKN040 02/M03 Q1032 R88/19//95 NOSIG
LOWW 221820Z 33003KT 300V360 9999 OVC035 01/M02 Q1032 R88/19//95 NOSIG
LOWW 221750Z 34004KT 310V010 9999 FEW024 SCT032 BKN040 01/M02 Q1031 R88/19//95 NOSIG
LOWW 221720Z 01005KT 330V060 9999 FEW032 BKN036 01/M02 Q1031 R88/19//95 NOSIG
LOWW 221650Z 01003KT 9999 FEW028 BKN032 01/M02 Q1030 R88/19//95 NOSIG
LOWW 221620Z 36005KT 9999 FEW038 SCT045 01/M02 Q1030 R88/19//95 NOSIG
LOWW 221550Z 03007KT CAVOK 01/M02 Q1030 R88/19//95 NOSIG
LOWW 221520Z 03004KT CAVOK 02/M02 Q1029 R88/19//95 NOSIG
LOWW 221450Z 32007KT CAVOK 03/M03 Q1030 R88/19//95 NOSIG
LOWW 221420Z 29010KT CAVOK 04/M03 Q1029 R88/19//95 NOSIG
LOWW 221350Z 33009KT CAVOK 03/M02 Q1030 R88/19//95 NOSIG
LOWW 221320Z 33011KT CAVOK 03/M03 Q1030 R88/19//95 NOSIG
LOWW 221250Z 35013KT CAVOK 02/M02 Q1030 R88/19//95 NOSIG
LOWW 221220Z 01012KT CAVOK 02/M02 Q1031 R88/19//95 NOSIG
LOWW 221150Z 02007KT CAVOK 02/M01 Q1031 R88/19//95 NOSIG
LOWW 221120Z 34006KT 310V010 CAVOK 02/M02 Q1031 R88/19//95 NOSIG
LOWW 221050Z 31010KT 9999 FEW013 SCT300 01/M02 Q1031 R88/19//95 NOSIG
LOWW 221020Z 32008KT 9000 FEW011 SCT013 00/M02 Q1032 R88/19//95 NOSIG
LOWW 220950Z 30007KT 9999 FEW010 BKN012 M00/M03 Q1032 R88/19//95 BECMG SCT010 BKN015
LOWW 220920Z 32007KT 9999 FEW010 BKN012 M01/M03 Q1033 R88/19//95 BECMG SCT010 BKN015
LOWW 220850Z 31009KT 9000 FEW009 SCT010 BKN012 M01/M03 Q1033 R88/19//95 BECMG SCT010 BKN015
LOWW 220820Z 29006KT 250V320 9000 FEW005 SCT006 BKN010 M01/M02 Q1034 R88/19//95 BECMG SCT010 BKN015
LOWW 220750Z 34004KT 4900 BR FEW004 BKN006 M01/M02 Q1034 R88/19//95 BECMG 5000
LOWW 220720Z 35006KT 4200 BR FEW004 BKN005 M02/M02 Q1034 R88/19//95 NOSIG
LOWW 220650Z 35006KT 4900 BR FEW004 BKN006 M02/M03 Q1034 R88/19//95 BECMG 5000
LOWW 220620Z 34006KT 4600 BR FEW003 BKN005 M02/M02 Q1034 R88/19//95 TEMPO 5000 BKN004
LOWW 220550Z 35006KT 5000 BR FEW004 BKN006 M01/M02 Q1034 R88/19//95 TEMPO 4500 BKN004
LOWW 220520Z 32004KT 270V340 6000 FEW004 BKN006 M01/M02 Q1033 R88/19//95 TEMPO 4500 BR BKN004
LOWW 220450Z 29003KT 250V340 7000 FEW004 BKN006 M01/M02 Q1034 R88/19//95 TEMPO 4500 BR BKN004
LOWW 220420Z VRB02KT 5000 BR FEW004 BKN005 M01/M02 Q1034 R88/19//95 TEMPO 4000 BR BKN004
LOWW 220350Z VRB01KT 6000 FEW004 BKN005 M01/M02 Q1034 R88/19//95 TEMPO 4000 BR BKN003
LOWW 220320Z VRB01KT 6000 FEW004 BKN006 M01/M02 Q1035 R88/19//95 TEMPO 4000 BR BKN003
LOWW 220250Z VRB02KT 6000 FEW002 BKN006 M01/M02 Q1035 R88/19//95 TEMPO 3000 BR BKN002
LOWW 220220Z 14003KT 7000 FEW002 BKN006 M01/M02 Q1035 R88/19//95 TEMPO 3000 BR BKN002
LOWW 220150Z VRB02KT 7000 FEW002 BKN006 M01/M02 Q1036 R88/19//95 TEMPO 3000 BR BKN002
LOWW 220120Z 16003KT 8000 FEW002 BKN006 M01/M02 Q1036 R88/19//95 TEMPO 2000 BR BKN002
LOWW 220050Z VRB01KT 8000 FEW002 BKN007 M01/M02 Q1036 R88/19//95 TEMPO 2000 BR BKN002
LOWW 220020Z VRB02KT 9999 4100S BR SCT002 BKN007 M01/M02 Q1037 R88/19//95 TEMPO 2000 BKN002
LOWW 212350Z VRB02KT 5000 BR SCT002 BKN007 M01/M02 Q1037 R88/19//95 TEMPO 2000 BKN002
LOWW 212320Z VRB01KT 3800 BR SCT002 BKN003 M01/M01 Q1038 R88/19//95 BECMG 2000 TEMPO BKN001
LOWW 212250Z VRB01KT 3400 BR SCT002 BKN003 M01/M01 Q1038 R88/19//95 BECMG 2000 TEMPO BKN001
LOWW 212220Z VRB02KT 3200 BR SCT001 BKN002 M01/M01 Q1038 R88/19//95 BECMG 2000 TEMPO BKN001
LOWW 212150Z 10002KT 4100 BR FEW001 BKN002 M01/M01 Q1039 R88/19//95 BECMG 2000 TEMPO BKN001
LOWW 212120Z 05002KT 3200 BR FEW001 BKN002 OVC009 M01/M01 Q1039 R88/19//95 BECMG 2000 TEMPO BKN001
LOWW 212050Z 07003KT 3300 BR FEW001 BKN003 M01/M01 Q1039 R88/19//95 BECMG 2000 BKN002
LOWW 212020Z 03003KT 3300 BR FEW002 BKN004 BKN010 M01/M01 Q1039 R88/19//95 BECMG 2000 BKN002
LOWW 211950Z VRB02KT 2900 R16/P1500U R29/P1500U BR FEW001 BKN003 BKN010 M01/M01 Q1039 R88/19//95 NOSIG
LOWW 211920Z 11002KT 3200 1200S R16/P1500N R29/P1500D BR FEW001 BKN004 BKN010 M01/M02 Q1039 R88/19//95 TEMPO 1200 FZBCFG BKN002
LOWW 211850Z 15002KT 3200 1100S R16/P1500D R29/P1500D BR FEW001 BKN004 BKN010 M01/M02 Q1040 R88/19//95 BECMG 2500 TEMPO BKN002
LOWW 211820Z 17003KT 4100 BR FEW001 SCT003 BKN010 M01/M02 Q1040 R88/19//95 BECMG FEW001 BKN003 TEMPO 2500
LOWW 211750Z VRB01KT 4400 BR FEW001 SCT003 BKN010 M01/M02 Q1040 R88/19//95 TEMPO FEW001 SCT003 BKN004
LOWW 211720Z VRB01KT 5000 BR FEW003 BKN011 M01/M02 Q1040 R88/19//95 TEMPO 3000 BKN004
LOWW 211650Z 12002KT 5000 BR FEW002 BKN007 M01/M02 Q1041 R88/19//95 TEMPO 4000
LOWW 211620Z 14002KT 5000 BR FEW004 BKN010 M01/M02 Q1040 R88/19//95 TEMPO 4000 BKN008
LOWW 211550Z VRB02KT 5000 BR FEW004 BKN006 M02/M02 Q1041 R88/19//95 TEMPO 4000
LOWW 211520Z VRB02KT 4100 BR FEW001 BKN006 M02/M02 Q1041 R88/19//95 TEMPO 2500
LOWW 211450Z VRB02KT 6000 1800S R16/P1500D R29/P1500D BR FEW000 BKN006 M02/M02 Q1041 R88/19//95 TEMPO 3000 BKN004
LOWW 211420Z 15004KT 5000 BR FEW001 BKN005 M02/M02 Q1041 R88/19//95 NOSIG
LOWW 211350Z 17004KT 140V200 5000 BR FEW003 BKN004 M02/M03 Q1041 R88/19//95 NOSIG
LOWW 211320Z VRB03KT 4700 BR FEW001 SCT002 BKN004 M02/M03 Q1042 R88/19//95 TEMPO 5000
LOWW 211250Z 17004KT 140V200 5000 BR FEW001 BKN004 M02/M03 Q1042 R88/19//95 NOSIG
LOWW 211220Z 14004KT 100V180 4000 1200S R16/P1500U R29/P1500D BR SCT001 BKN002 M02/M02 Q1042 R88/19//95 BECMG 6000 NSW FEW002 BKN003
LOWW 211150Z 12004KT 0900 R16/0700N R29/0800N FZFG OVC001 M02/M03 Q1042 R88/19//95 TEMPO 2000 BR SCT001 BKN002
LOWW 211120Z 20003KT 120V230 0600 R16/0700N R29/0600N FZFG FEW001 BKN002 M03/M03 Q1043 R88/19//95 TEMPO 0900 SCT002 BKN003
LOWW 211050Z 17004KT 110V210 0550 R16/0600D R29/0650N FZFG FEW000 BKN002 M03/M03 Q1043 R88/19//95 TEMPO 0900 BKN003
LOWW 211020Z 11003KT 0550 R16/0700N R29/0700D FZFG FEW000 BKN002 M03/M03 Q1043 R88/19//95 TEMPO 0900 BKN003
LOWW 210950Z 17004KT 120V200 0550 R16/0650D R29/0700N FZFG FEW000 BKN001 M03/M03 Q1043 R88/19//95 BECMG 0900 BKN003
LOWW 210920Z 14004KT 100V170 0600 R16/1100D R29/0600N FZFG FEW000 BKN001 M03/M03 Q1043 R88/19//95 BECMG 2000 BR BKN003
LOWW 210850Z 11003KT 080V140 0450 R16/0900U R29/0400U FZFG FEW000 BKN002 M03/M04 Q1043 R88/19//95 BECMG 2000 BR
LOWW 210820Z VRB02KT 0400 R16/0250N R29/0350N FZFG FEW000 BKN001 M04/M04 Q1043 R88/19//95 BECMG FM0900 0900 VV002
LOWW 210750Z VRB02KT 0250 R16/0275N R29/0250N FZFG FEW000 BKN001 M04/M04 Q1044 R88/19//95 BECMG FM0900 0900
LOWW 210720Z 04002KT 0300 R16/0275N R29/0450D FZFG SCT000 BKN001 M05/M06 Q1043 R88/19//95 TEMPO 0400
LOWW 210650Z VRB01KT 1000 0150N R16/0200D R29/1300D FZBCFG FEW000 BKN001 M05/M06 Q1043 R88/19//95 TEMPO 0400 FZFG
LOWW 210620Z 18003KT 0800 0200S R16/0650D R29/P1500D FZBCFG SCT000 M06/M06 Q1043 R88/19//95 TEMPO 0400 FZFG VV001
LOWW 210550Z 16003KT 0450 R16/P1500U R29/P1500U FZBCFG SCT001 M05/M06 Q1043 R88/19//95 TEMPO 0600 FZFG VV001
LOWW 210520Z 14003KT 1000 0250W R16/P1500U R29/P1500N FZBCFG BKN001 M05/M06 Q1043 R88/19//95 TEMPO 0400 FZFG
LOWW 210450Z 17002KT 3000 0300W R16/P1500D R29/P1500N FZBCFG SCT001 M05/M05 Q1043 R88/19//95 TEMPO 0400 FZFG VV001
LOWW 210420Z 16004KT 1500 0500S R16/0750D R29/1100U FZBCFG BKN001 M05/M05 Q1044 R88/19//95 TEMPO 0400 FZFG VV001
LOWW 210350Z 15004KT 0450 R16/0600U R29/0800N FZFG BKN001 M04/M04 Q1044 R88/19//95 TEMPO 0600